sensor_id;sensor_type;location;lat;lon;timestamp;P1;durP1;ratioP1;P2;durP2;ratioP2
14817;SDS011;7500;57.698;11.986;2023-05-20T00:01:24;11.27;;;7.97;;
14817;SDS011;7500;57.698;11.986;2023-05-20T00:03:50;12.37;;;7.63;;
14817;SDS011;7500;57.698;11.986;2023-05-20T00:06:17;11.97;;;8.53;;
14817;SDS011;7500;57.698;11.986;2023-05-20T00:08:45;10.53;;;7.47;;
14817;SDS011;7500;57.698;11.986;2023-05-20T00:11:12;10.50;;;8.03;;
14817;SDS011;7500;57.698;11.986;2023-05-20T00:13:38;10.13;;;7.90;;
14817;SDS011;7500;57.698;11.986;2023-05-20T00:16:05;10.27;;;8.30;;
14817;SDS011;7500;57.698;11.986;2023-05-20T00:18:31;12.20;;;8.60;;
14817;SDS011;7500;57.698;11.986;2023-05-20T00:20:58;10.20;;;7.97;;
14817;SDS011;7500;57.698;11.986;2023-05-20T00:23:25;12.53;;;7.43;;
14817;SDS011;7500;57.698;11.986;2023-05-20T00:25:53;12.80;;;8.30;;
14817;SDS011;7500;57.698;11.986;2023-05-20T00:28:19;11.47;;;8.23;;
14817;SDS011;7500;57.698;11.986;2023-05-20T00:30:47;9.60;;;8.13;;
14817;SDS011;7500;57.698;11.986;2023-05-20T00:33:14;10.63;;;7.63;;
14817;SDS011;7500;57.698;11.986;2023-05-20T00:35:41;11.23;;;8.07;;
14817;SDS011;7500;57.698;11.986;2023-05-20T00:38:07;11.97;;;8.00;;
14817;SDS011;7500;57.698;11.986;2023-05-20T00:40:34;11.77;;;8.60;;
14817;SDS011;7500;57.698;11.986;2023-05-20T00:43:02;11.67;;;7.90;;
14817;SDS011;7500;57.698;11.986;2023-05-20T00:45:29;10.73;;;8.20;;
14817;SDS011;7500;57.698;11.986;2023-05-20T00:47:56;9.63;;;7.50;;
14817;SDS011;7500;57.698;11.986;2023-05-20T00:50:25;12.90;;;8.13;;
14817;SDS011;7500;57.698;11.986;2023-05-20T00:52:52;14.53;;;7.87;;
14817;SDS011;7500;57.698;11.986;2023-05-20T00:55:19;12.27;;;7.93;;
14817;SDS011;7500;57.698;11.986;2023-05-20T00:57:46;12.87;;;8.40;;
14817;SDS011;7500;57.698;11.986;2023-05-20T01:00:14;9.20;;;7.47;;
14817;SDS011;7500;57.698;11.986;2023-05-20T01:02:41;11.07;;;8.30;;
14817;SDS011;7500;57.698;11.986;2023-05-20T01:05:07;11.93;;;8.10;;
14817;SDS011;7500;57.698;11.986;2023-05-20T01:07:34;11.07;;;7.30;;
14817;SDS011;7500;57.698;11.986;2023-05-20T01:10:01;8.90;;;7.40;;
14817;SDS011;7500;57.698;11.986;2023-05-20T01:12:29;11.53;;;7.27;;
14817;SDS011;7500;57.698;11.986;2023-05-20T01:14:58;11.57;;;7.83;;
14817;SDS011;7500;57.698;11.986;2023-05-20T01:17:30;9.77;;;7.23;;
14817;SDS011;7500;57.698;11.986;2023-05-20T01:19:57;9.27;;;7.60;;
14817;SDS011;7500;57.698;11.986;2023-05-20T01:22:26;9.87;;;7.10;;
14817;SDS011;7500;57.698;11.986;2023-05-20T01:24:53;10.67;;;7.73;;
14817;SDS011;7500;57.698;11.986;2023-05-20T01:27:20;9.43;;;7.87;;
14817;SDS011;7500;57.698;11.986;2023-05-20T01:29:48;9.30;;;7.43;;
14817;SDS011;7500;57.698;11.986;2023-05-20T01:32:16;9.23;;;7.93;;
14817;SDS011;7500;57.698;11.986;2023-05-20T01:34:44;10.10;;;7.63;;
14817;SDS011;7500;57.698;11.986;2023-05-20T01:37:13;11.40;;;8.07;;
14817;SDS011;7500;57.698;11.986;2023-05-20T01:39:41;11.37;;;8.60;;
14817;SDS011;7500;57.698;11.986;2023-05-20T01:42:08;10.50;;;7.50;;
14817;SDS011;7500;57.698;11.986;2023-05-20T01:44:35;10.03;;;7.43;;
14817;SDS011;7500;57.698;11.986;2023-05-20T01:47:02;8.87;;;7.23;;
14817;SDS011;7500;57.698;11.986;2023-05-20T01:49:29;12.67;;;7.90;;
14817;SDS011;7500;57.698;11.986;2023-05-20T01:51:55;10.23;;;7.57;;
14817;SDS011;7500;57.698;11.986;2023-05-20T01:54:22;11.17;;;7.70;;
14817;SDS011;7500;57.698;11.986;2023-05-20T01:56:50;11.37;;;7.87;;
14817;SDS011;7500;57.698;11.986;2023-05-20T01:59:17;10.83;;;7.23;;
14817;SDS011;7500;57.698;11.986;2023-05-20T02:01:43;12.20;;;7.50;;
14817;SDS011;7500;57.698;11.986;2023-05-20T02:04:10;9.33;;;7.50;;
14817;SDS011;7500;57.698;11.986;2023-05-20T02:06:37;9.30;;;6.40;;
14817;SDS011;7500;57.698;11.986;2023-05-20T02:09:03;9.00;;;7.07;;
14817;SDS011;7500;57.698;11.986;2023-05-20T02:11:30;10.67;;;7.10;;
14817;SDS011;7500;57.698;11.986;2023-05-20T02:13:58;8.80;;;7.03;;
14817;SDS011;7500;57.698;11.986;2023-05-20T02:16:25;9.93;;;7.23;;
14817;SDS011;7500;57.698;11.986;2023-05-20T02:18:51;10.00;;;6.57;;
14817;SDS011;7500;57.698;11.986;2023-05-20T02:21:18;9.07;;;7.00;;
14817;SDS011;7500;57.698;11.986;2023-05-20T02:23:44;9.27;;;7.00;;
14817;SDS011;7500;57.698;11.986;2023-05-20T02:26:11;9.37;;;7.03;;
14817;SDS011;7500;57.698;11.986;2023-05-20T02:28:38;7.50;;;6.80;;
14817;SDS011;7500;57.698;11.986;2023-05-20T02:31:10;8.27;;;6.87;;
14817;SDS011;7500;57.698;11.986;2023-05-20T02:33:36;9.73;;;6.53;;
14817;SDS011;7500;57.698;11.986;2023-05-20T02:36:03;8.63;;;6.97;;
14817;SDS011;7500;57.698;11.986;2023-05-20T02:38:30;7.93;;;6.60;;
14817;SDS011;7500;57.698;11.986;2023-05-20T02:40:57;7.43;;;6.40;;
14817;SDS011;7500;57.698;11.986;2023-05-20T02:43:24;9.33;;;7.10;;
14817;SDS011;7500;57.698;11.986;2023-05-20T02:45:50;9.43;;;7.00;;
14817;SDS011;7500;57.698;11.986;2023-05-20T02:48:18;7.40;;;6.60;;
14817;SDS011;7500;57.698;11.986;2023-05-20T02:50:45;12.00;;;7.40;;
14817;SDS011;7500;57.698;11.986;2023-05-20T02:53:12;10.17;;;7.13;;
14817;SDS011;7500;57.698;11.986;2023-05-20T02:55:39;8.77;;;6.83;;
14817;SDS011;7500;57.698;11.986;2023-05-20T02:58:05;9.53;;;7.50;;
14817;SDS011;7500;57.698;11.986;2023-05-20T03:00:32;7.70;;;6.67;;
14817;SDS011;7500;57.698;11.986;2023-05-20T03:03:04;7.80;;;6.63;;
14817;SDS011;7500;57.698;11.986;2023-05-20T03:05:33;9.30;;;7.10;;
14817;SDS011;7500;57.698;11.986;2023-05-20T03:08:01;9.13;;;6.70;;
14817;SDS011;7500;57.698;11.986;2023-05-20T03:10:28;7.70;;;6.90;;
14817;SDS011;7500;57.698;11.986;2023-05-20T03:12:55;8.20;;;6.77;;
14817;SDS011;7500;57.698;11.986;2023-05-20T03:15:21;11.23;;;7.33;;
14817;SDS011;7500;57.698;11.986;2023-05-20T03:17:48;8.83;;;7.50;;
14817;SDS011;7500;57.698;11.986;2023-05-20T03:20:15;12.03;;;6.97;;
14817;SDS011;7500;57.698;11.986;2023-05-20T03:22:43;10.67;;;6.77;;
14817;SDS011;7500;57.698;11.986;2023-05-20T03:25:09;10.50;;;7.07;;
14817;SDS011;7500;57.698;11.986;2023-05-20T03:27:36;9.00;;;6.60;;
14817;SDS011;7500;57.698;11.986;2023-05-20T03:30:03;7.93;;;7.13;;
14817;SDS011;7500;57.698;11.986;2023-05-20T03:32:30;10.33;;;6.87;;
14817;SDS011;7500;57.698;11.986;2023-05-20T03:34:56;8.63;;;6.57;;
14817;SDS011;7500;57.698;11.986;2023-05-20T03:37:24;8.00;;;7.00;;
14817;SDS011;7500;57.698;11.986;2023-05-20T03:39:52;9.03;;;7.17;;
14817;SDS011;7500;57.698;11.986;2023-05-20T03:42:18;11.70;;;7.70;;
14817;SDS011;7500;57.698;11.986;2023-05-20T03:44:45;9.40;;;7.07;;
14817;SDS011;7500;57.698;11.986;2023-05-20T03:47:11;8.60;;;7.57;;
14817;SDS011;7500;57.698;11.986;2023-05-20T03:49:38;11.40;;;6.90;;
14817;SDS011;7500;57.698;11.986;2023-05-20T03:52:05;11.53;;;7.90;;
14817;SDS011;7500;57.698;11.986;2023-05-20T03:54:32;10.07;;;7.10;;
14817;SDS011;7500;57.698;11.986;2023-05-20T03:57:01;10.10;;;7.33;;
14817;SDS011;7500;57.698;11.986;2023-05-20T03:59:28;9.80;;;7.00;;
14817;SDS011;7500;57.698;11.986;2023-05-20T04:01:54;10.97;;;7.40;;
14817;SDS011;7500;57.698;11.986;2023-05-20T04:04:22;10.03;;;7.13;;
14817;SDS011;7500;57.698;11.986;2023-05-20T04:06:48;8.23;;;7.10;;
14817;SDS011;7500;57.698;11.986;2023-05-20T04:09:15;8.13;;;6.57;;
14817;SDS011;7500;57.698;11.986;2023-05-20T04:11:41;11.47;;;7.23;;
14817;SDS011;7500;57.698;11.986;2023-05-20T04:14:09;11.90;;;7.33;;
14817;SDS011;7500;57.698;11.986;2023-05-20T04:16:36;9.77;;;6.77;;
14817;SDS011;7500;57.698;11.986;2023-05-20T04:19:02;10.43;;;6.90;;
14817;SDS011;7500;57.698;11.986;2023-05-20T04:21:29;10.53;;;7.10;;
14817;SDS011;7500;57.698;11.986;2023-05-20T04:23:56;8.30;;;7.20;;
14817;SDS011;7500;57.698;11.986;2023-05-20T04:26:23;13.00;;;7.53;;
14817;SDS011;7500;57.698;11.986;2023-05-20T04:28:49;11.37;;;6.83;;
14817;SDS011;7500;57.698;11.986;2023-05-20T04:31:17;8.53;;;6.63;;
14817;SDS011;7500;57.698;11.986;2023-05-20T04:33:44;7.90;;;7.10;;
14817;SDS011;7500;57.698;11.986;2023-05-20T04:36:11;10.07;;;7.03;;
14817;SDS011;7500;57.698;11.986;2023-05-20T04:38:40;8.43;;;6.90;;
14817;SDS011;7500;57.698;11.986;2023-05-20T04:41:08;7.50;;;6.00;;
14817;SDS011;7500;57.698;11.986;2023-05-20T04:43:35;9.73;;;6.87;;
14817;SDS011;7500;57.698;11.986;2023-05-20T04:46:03;10.47;;;6.87;;
14817;SDS011;7500;57.698;11.986;2023-05-20T04:48:32;8.57;;;6.87;;
14817;SDS011;7500;57.698;11.986;2023-05-20T04:50:59;8.20;;;6.53;;
14817;SDS011;7500;57.698;11.986;2023-05-20T04:53:26;9.97;;;6.43;;
14817;SDS011;7500;57.698;11.986;2023-05-20T04:55:54;11.60;;;6.80;;
14817;SDS011;7500;57.698;11.986;2023-05-20T04:58:21;8.13;;;7.13;;
14817;SDS011;7500;57.698;11.986;2023-05-20T05:00:49;11.40;;;7.03;;
14817;SDS011;7500;57.698;11.986;2023-05-20T05:03:16;7.80;;;6.93;;
14817;SDS011;7500;57.698;11.986;2023-05-20T05:05:44;10.77;;;5.97;;
14817;SDS011;7500;57.698;11.986;2023-05-20T05:08:10;8.07;;;6.33;;
14817;SDS011;7500;57.698;11.986;2023-05-20T05:10:37;6.07;;;5.47;;
14817;SDS011;7500;57.698;11.986;2023-05-20T05:13:04;7.17;;;6.10;;
14817;SDS011;7500;57.698;11.986;2023-05-20T05:15:30;9.47;;;6.57;;
14817;SDS011;7500;57.698;11.986;2023-05-20T05:17:57;10.40;;;6.30;;
14817;SDS011;7500;57.698;11.986;2023-05-20T05:20:23;6.50;;;5.80;;
14817;SDS011;7500;57.698;11.986;2023-05-20T05:22:51;9.43;;;6.07;;
14817;SDS011;7500;57.698;11.986;2023-05-20T05:25:18;7.90;;;6.43;;
14817;SDS011;7500;57.698;11.986;2023-05-20T05:27:44;7.07;;;6.27;;
14817;SDS011;7500;57.698;11.986;2023-05-20T05:30:13;6.50;;;5.90;;
14817;SDS011;7500;57.698;11.986;2023-05-20T05:32:39;6.73;;;6.03;;
14817;SDS011;7500;57.698;11.986;2023-05-20T05:35:06;9.23;;;6.13;;
14817;SDS011;7500;57.698;11.986;2023-05-20T05:37:33;6.97;;;6.23;;
14817;SDS011;7500;57.698;11.986;2023-05-20T05:40:01;6.13;;;5.53;;
14817;SDS011;7500;57.698;11.986;2023-05-20T05:42:28;7.30;;;5.90;;
14817;SDS011;7500;57.698;11.986;2023-05-20T05:44:54;8.23;;;6.90;;
14817;SDS011;7500;57.698;11.986;2023-05-20T05:47:21;9.60;;;5.73;;
14817;SDS011;7500;57.698;11.986;2023-05-20T05:49:48;7.13;;;5.87;;
14817;SDS011;7500;57.698;11.986;2023-05-20T05:52:14;9.93;;;6.80;;
14817;SDS011;7500;57.698;11.986;2023-05-20T05:54:41;7.93;;;6.60;;
14817;SDS011;7500;57.698;11.986;2023-05-20T05:57:09;8.40;;;6.83;;
14817;SDS011;7500;57.698;11.986;2023-05-20T05:59:36;8.07;;;6.63;;
14817;SDS011;7500;57.698;11.986;2023-05-20T06:02:02;9.27;;;6.50;;
14817;SDS011;7500;57.698;11.986;2023-05-20T06:04:29;8.57;;;6.63;;
14817;SDS011;7500;57.698;11.986;2023-05-20T06:06:56;7.47;;;6.73;;
14817;SDS011;7500;57.698;11.986;2023-05-20T06:09:22;9.93;;;6.47;;
14817;SDS011;7500;57.698;11.986;2023-05-20T06:11:49;7.00;;;6.30;;
14817;SDS011;7500;57.698;11.986;2023-05-20T06:14:17;8.33;;;6.90;;
14817;SDS011;7500;57.698;11.986;2023-05-20T06:16:43;8.17;;;6.57;;
14817;SDS011;7500;57.698;11.986;2023-05-20T06:19:10;10.40;;;7.33;;
14817;SDS011;7500;57.698;11.986;2023-05-20T06:21:37;7.93;;;6.70;;
14817;SDS011;7500;57.698;11.986;2023-05-20T06:24:03;9.00;;;6.83;;
14817;SDS011;7500;57.698;11.986;2023-05-20T06:26:30;9.03;;;7.00;;
14817;SDS011;7500;57.698;11.986;2023-05-20T06:28:57;10.17;;;7.37;;
14817;SDS011;7500;57.698;11.986;2023-05-20T06:31:24;9.77;;;6.70;;
14817;SDS011;7500;57.698;11.986;2023-05-20T06:33:51;8.33;;;6.97;;
14817;SDS011;7500;57.698;11.986;2023-05-20T06:36:18;9.10;;;6.47;;
14817;SDS011;7500;57.698;11.986;2023-05-20T06:38:45;10.03;;;6.03;;
14817;SDS011;7500;57.698;11.986;2023-05-20T06:41:11;9.73;;;6.20;;
14817;SDS011;7500;57.698;11.986;2023-05-20T06:43:38;10.77;;;6.63;;
14817;SDS011;7500;57.698;11.986;2023-05-20T06:46:05;7.70;;;5.60;;
14817;SDS011;7500;57.698;11.986;2023-05-20T06:48:33;9.13;;;6.10;;
14817;SDS011;7500;57.698;11.986;2023-05-20T06:51:00;13.20;;;6.20;;
14817;SDS011;7500;57.698;11.986;2023-05-20T06:53:26;7.60;;;5.90;;
14817;SDS011;7500;57.698;11.986;2023-05-20T06:55:53;8.97;;;6.30;;
14817;SDS011;7500;57.698;11.986;2023-05-20T06:58:20;7.23;;;6.00;;
14817;SDS011;7500;57.698;11.986;2023-05-20T07:00:47;7.30;;;6.27;;
14817;SDS011;7500;57.698;11.986;2023-05-20T07:03:13;7.43;;;5.90;;
14817;SDS011;7500;57.698;11.986;2023-05-20T07:05:42;6.80;;;5.47;;
14817;SDS011;7500;57.698;11.986;2023-05-20T07:08:08;8.13;;;5.67;;
14817;SDS011;7500;57.698;11.986;2023-05-20T07:10:35;6.60;;;5.63;;
14817;SDS011;7500;57.698;11.986;2023-05-20T07:13:02;9.03;;;5.53;;
14817;SDS011;7500;57.698;11.986;2023-05-20T07:15:28;5.97;;;5.00;;
14817;SDS011;7500;57.698;11.986;2023-05-20T07:17:55;6.03;;;4.77;;
14817;SDS011;7500;57.698;11.986;2023-05-20T07:20:22;5.37;;;4.40;;
14817;SDS011;7500;57.698;11.986;2023-05-20T07:22:50;6.13;;;4.03;;
14817;SDS011;7500;57.698;11.986;2023-05-20T07:25:16;4.87;;;4.37;;
14817;SDS011;7500;57.698;11.986;2023-05-20T07:27:43;7.43;;;4.30;;
14817;SDS011;7500;57.698;11.986;2023-05-20T07:30:10;4.93;;;4.47;;
14817;SDS011;7500;57.698;11.986;2023-05-20T07:32:36;5.13;;;3.90;;
14817;SDS011;7500;57.698;11.986;2023-05-20T07:35:03;4.63;;;4.17;;
14817;SDS011;7500;57.698;11.986;2023-05-20T07:37:30;5.73;;;4.40;;
14817;SDS011;7500;57.698;11.986;2023-05-20T07:39:58;6.17;;;4.07;;
14817;SDS011;7500;57.698;11.986;2023-05-20T07:42:25;5.27;;;4.10;;
14817;SDS011;7500;57.698;11.986;2023-05-20T07:44:52;5.90;;;4.17;;
14817;SDS011;7500;57.698;11.986;2023-05-20T07:47:18;4.97;;;3.73;;
14817;SDS011;7500;57.698;11.986;2023-05-20T07:49:45;6.20;;;4.17;;
14817;SDS011;7500;57.698;11.986;2023-05-20T07:52:11;5.00;;;4.10;;
14817;SDS011;7500;57.698;11.986;2023-05-20T07:54:38;6.03;;;4.03;;
14817;SDS011;7500;57.698;11.986;2023-05-20T07:57:06;10.73;;;4.10;;
14817;SDS011;7500;57.698;11.986;2023-05-20T07:59:33;4.23;;;3.43;;
14817;SDS011;7500;57.698;11.986;2023-05-20T08:01:59;5.10;;;3.67;;
14817;SDS011;7500;57.698;11.986;2023-05-20T08:04:26;4.57;;;3.73;;
14817;SDS011;7500;57.698;11.986;2023-05-20T08:06:53;4.10;;;3.60;;
14817;SDS011;7500;57.698;11.986;2023-05-20T08:09:19;6.10;;;3.77;;
14817;SDS011;7500;57.698;11.986;2023-05-20T08:11:47;4.80;;;3.37;;
14817;SDS011;7500;57.698;11.986;2023-05-20T08:14:15;4.80;;;3.50;;
14817;SDS011;7500;57.698;11.986;2023-05-20T08:16:41;4.30;;;3.60;;
14817;SDS011;7500;57.698;11.986;2023-05-20T08:19:08;4.97;;;3.27;;
14817;SDS011;7500;57.698;11.986;2023-05-20T08:21:35;5.40;;;2.93;;
14817;SDS011;7500;57.698;11.986;2023-05-20T08:24:02;5.60;;;3.63;;
14817;SDS011;7500;57.698;11.986;2023-05-20T08:26:29;6.13;;;3.33;;
14817;SDS011;7500;57.698;11.986;2023-05-20T08:28:56;4.43;;;2.93;;
14817;SDS011;7500;57.698;11.986;2023-05-20T08:31:24;5.03;;;3.27;;
14817;SDS011;7500;57.698;11.986;2023-05-20T08:33:50;5.03;;;3.03;;
14817;SDS011;7500;57.698;11.986;2023-05-20T08:36:17;4.77;;;3.30;;
14817;SDS011;7500;57.698;11.986;2023-05-20T08:38:44;5.60;;;3.30;;
14817;SDS011;7500;57.698;11.986;2023-05-20T08:41:11;3.97;;;3.00;;
14817;SDS011;7500;57.698;11.986;2023-05-20T08:43:37;3.93;;;3.00;;
14817;SDS011;7500;57.698;11.986;2023-05-20T08:46:04;4.17;;;2.90;;
14817;SDS011;7500;57.698;11.986;2023-05-20T08:48:32;3.73;;;3.07;;
14817;SDS011;7500;57.698;11.986;2023-05-20T08:51:01;5.67;;;3.10;;
14817;SDS011;7500;57.698;11.986;2023-05-20T08:53:28;3.43;;;3.10;;
14817;SDS011;7500;57.698;11.986;2023-05-20T08:55:55;3.10;;;2.57;;
14817;SDS011;7500;57.698;11.986;2023-05-20T08:58:22;4.90;;;2.70;;
14817;SDS011;7500;57.698;11.986;2023-05-20T09:00:50;3.27;;;2.63;;
14817;SDS011;7500;57.698;11.986;2023-05-20T09:03:17;3.20;;;2.70;;
14817;SDS011;7500;57.698;11.986;2023-05-20T09:05:45;2.97;;;2.60;;
14817;SDS011;7500;57.698;11.986;2023-05-20T09:08:12;3.73;;;2.70;;
14817;SDS011;7500;57.698;11.986;2023-05-20T09:10:39;7.20;;;3.00;;
14817;SDS011;7500;57.698;11.986;2023-05-20T09:13:06;4.63;;;3.10;;
14817;SDS011;7500;57.698;11.986;2023-05-20T09:15:33;3.77;;;3.00;;
14817;SDS011;7500;57.698;11.986;2023-05-20T09:18:01;4.37;;;3.20;;
14817;SDS011;7500;57.698;11.986;2023-05-20T09:20:28;3.70;;;3.30;;
14817;SDS011;7500;57.698;11.986;2023-05-20T09:22:59;8.00;;;3.30;;
14817;SDS011;7500;57.698;11.986;2023-05-20T09:25:26;4.87;;;3.30;;
14817;SDS011;7500;57.698;11.986;2023-05-20T09:27:53;7.63;;;3.30;;
14817;SDS011;7500;57.698;11.986;2023-05-20T09:30:20;4.97;;;3.20;;
14817;SDS011;7500;57.698;11.986;2023-05-20T09:32:51;5.43;;;3.37;;
14817;SDS011;7500;57.698;11.986;2023-05-20T09:35:17;6.07;;;3.47;;
14817;SDS011;7500;57.698;11.986;2023-05-20T09:37:44;8.03;;;3.20;;
14817;SDS011;7500;57.698;11.986;2023-05-20T09:40:13;3.80;;;2.97;;
14817;SDS011;7500;57.698;11.986;2023-05-20T09:42:43;4.50;;;3.20;;
14817;SDS011;7500;57.698;11.986;2023-05-20T09:45:12;3.37;;;2.90;;
14817;SDS011;7500;57.698;11.986;2023-05-20T09:47:39;4.80;;;2.90;;
14817;SDS011;7500;57.698;11.986;2023-05-20T09:50:07;3.33;;;3.03;;
14817;SDS011;7500;57.698;11.986;2023-05-20T09:52:34;4.90;;;2.97;;
14817;SDS011;7500;57.698;11.986;2023-05-20T09:55:01;5.20;;;3.23;;
14817;SDS011;7500;57.698;11.986;2023-05-20T09:57:31;5.23;;;2.70;;
14817;SDS011;7500;57.698;11.986;2023-05-20T09:59:59;4.57;;;2.70;;
14817;SDS011;7500;57.698;11.986;2023-05-20T10:02:27;5.00;;;2.70;;
14817;SDS011;7500;57.698;11.986;2023-05-20T10:04:54;4.90;;;3.70;;
14817;SDS011;7500;57.698;11.986;2023-05-20T10:07:39;8.23;;;4.20;;
14817;SDS011;7500;57.698;11.986;2023-05-20T10:10:13;7.37;;;4.03;;
14817;SDS011;7500;57.698;11.986;2023-05-20T10:12:47;7.03;;;3.53;;
14817;SDS011;7500;57.698;11.986;2023-05-20T10:15:18;7.50;;;3.90;;
14817;SDS011;7500;57.698;11.986;2023-05-20T10:17:57;8.77;;;4.07;;
14817;SDS011;7500;57.698;11.986;2023-05-20T10:20:27;4.20;;;3.73;;
14817;SDS011;7500;57.698;11.986;2023-05-20T10:22:54;6.30;;;4.53;;
14817;SDS011;7500;57.698;11.986;2023-05-20T10:25:25;4.90;;;4.30;;
14817;SDS011;7500;57.698;11.986;2023-05-20T10:28:02;5.30;;;4.50;;
14817;SDS011;7500;57.698;11.986;2023-05-20T10:30:29;4.73;;;4.10;;
14817;SDS011;7500;57.698;11.986;2023-05-20T10:32:57;6.47;;;4.43;;
14817;SDS011;7500;57.698;11.986;2023-05-20T10:35:25;4.97;;;4.27;;
14817;SDS011;7500;57.698;11.986;2023-05-20T10:37:52;6.87;;;4.20;;
14817;SDS011;7500;57.698;11.986;2023-05-20T10:40:19;6.97;;;4.40;;
14817;SDS011;7500;57.698;11.986;2023-05-20T10:42:46;8.30;;;4.47;;
14817;SDS011;7500;57.698;11.986;2023-05-20T10:45:25;7.63;;;4.20;;
14817;SDS011;7500;57.698;11.986;2023-05-20T10:47:54;6.23;;;4.10;;
14817;SDS011;7500;57.698;11.986;2023-05-20T10:50:25;4.60;;;4.10;;
14817;SDS011;7500;57.698;11.986;2023-05-20T10:52:52;9.10;;;4.10;;
14817;SDS011;7500;57.698;11.986;2023-05-20T10:55:18;6.57;;;4.00;;
14817;SDS011;7500;57.698;11.986;2023-05-20T10:57:47;5.57;;;4.27;;
14817;SDS011;7500;57.698;11.986;2023-05-20T11:00:14;4.73;;;4.27;;
14817;SDS011;7500;57.698;11.986;2023-05-20T11:02:42;6.67;;;4.30;;
14817;SDS011;7500;57.698;11.986;2023-05-20T11:05:10;4.60;;;3.67;;
14817;SDS011;7500;57.698;11.986;2023-05-20T11:07:36;4.70;;;4.20;;
14817;SDS011;7500;57.698;11.986;2023-05-20T11:10:06;5.03;;;4.53;;
14817;SDS011;7500;57.698;11.986;2023-05-20T11:12:32;7.27;;;4.40;;
14817;SDS011;7500;57.698;11.986;2023-05-20T11:14:59;6.60;;;4.60;;
14817;SDS011;7500;57.698;11.986;2023-05-20T11:17:26;7.37;;;4.60;;
14817;SDS011;7500;57.698;11.986;2023-05-20T11:19:55;6.80;;;3.97;;
14817;SDS011;7500;57.698;11.986;2023-05-20T11:22:24;5.60;;;4.57;;
14817;SDS011;7500;57.698;11.986;2023-05-20T11:24:51;6.43;;;4.40;;
14817;SDS011;7500;57.698;11.986;2023-05-20T11:27:18;6.53;;;4.63;;
14817;SDS011;7500;57.698;11.986;2023-05-20T11:29:44;6.50;;;4.70;;
14817;SDS011;7500;57.698;11.986;2023-05-20T11:32:14;6.97;;;5.10;;
14817;SDS011;7500;57.698;11.986;2023-05-20T11:34:41;6.73;;;5.23;;
14817;SDS011;7500;57.698;11.986;2023-05-20T11:37:09;8.43;;;4.70;;
14817;SDS011;7500;57.698;11.986;2023-05-20T11:39:36;6.20;;;5.27;;
14817;SDS011;7500;57.698;11.986;2023-05-20T11:42:03;5.20;;;4.70;;
14817;SDS011;7500;57.698;11.986;2023-05-20T11:44:31;6.33;;;4.53;;
14817;SDS011;7500;57.698;11.986;2023-05-20T11:46:58;5.93;;;5.03;;
14817;SDS011;7500;57.698;11.986;2023-05-20T11:49:25;4.77;;;4.20;;
14817;SDS011;7500;57.698;11.986;2023-05-20T11:51:52;8.43;;;4.83;;
14817;SDS011;7500;57.698;11.986;2023-05-20T11:54:20;7.83;;;4.83;;
14817;SDS011;7500;57.698;11.986;2023-05-20T11:56:47;5.87;;;5.20;;
14817;SDS011;7500;57.698;11.986;2023-05-20T11:59:14;5.30;;;4.80;;
14817;SDS011;7500;57.698;11.986;2023-05-20T12:01:40;5.00;;;4.50;;
14817;SDS011;7500;57.698;11.986;2023-05-20T12:04:07;6.17;;;5.20;;
14817;SDS011;7500;57.698;11.986;2023-05-20T12:06:34;5.20;;;4.70;;
14817;SDS011;7500;57.698;11.986;2023-05-20T12:09:02;6.93;;;5.20;;
14817;SDS011;7500;57.698;11.986;2023-05-20T12:11:32;6.17;;;4.50;;
14817;SDS011;7500;57.698;11.986;2023-05-20T12:13:59;5.53;;;4.63;;
14817;SDS011;7500;57.698;11.986;2023-05-20T12:16:26;7.77;;;4.73;;
14817;SDS011;7500;57.698;11.986;2023-05-20T12:18:52;7.03;;;4.93;;
14817;SDS011;7500;57.698;11.986;2023-05-20T12:21:19;6.57;;;4.57;;
14817;SDS011;7500;57.698;11.986;2023-05-20T12:23:46;10.27;;;4.93;;
14817;SDS011;7500;57.698;11.986;2023-05-20T12:26:12;6.67;;;4.87;;
14817;SDS011;7500;57.698;11.986;2023-05-20T12:28:40;5.67;;;4.90;;
14817;SDS011;7500;57.698;11.986;2023-05-20T12:31:07;7.13;;;5.00;;
14817;SDS011;7500;57.698;11.986;2023-05-20T12:33:33;8.10;;;5.03;;
14817;SDS011;7500;57.698;11.986;2023-05-20T12:36:00;6.77;;;4.30;;
14817;SDS011;7500;57.698;11.986;2023-05-20T12:38:27;5.77;;;4.50;;
14817;SDS011;7500;57.698;11.986;2023-05-20T12:40:53;6.33;;;4.67;;
14817;SDS011;7500;57.698;11.986;2023-05-20T12:43:20;8.80;;;5.13;;
14817;SDS011;7500;57.698;11.986;2023-05-20T12:45:48;5.70;;;5.10;;
14817;SDS011;7500;57.698;11.986;2023-05-20T12:48:15;5.10;;;4.60;;
14817;SDS011;7500;57.698;11.986;2023-05-20T12:50:41;4.30;;;3.90;;
14817;SDS011;7500;57.698;11.986;2023-05-20T12:53:08;4.43;;;4.03;;
14817;SDS011;7500;57.698;11.986;2023-05-20T12:55:35;5.17;;;3.90;;
14817;SDS011;7500;57.698;11.986;2023-05-20T12:58:02;5.93;;;4.50;;
14817;SDS011;7500;57.698;11.986;2023-05-20T13:00:29;9.50;;;4.70;;
14817;SDS011;7500;57.698;11.986;2023-05-20T13:02:57;5.70;;;4.17;;
14817;SDS011;7500;57.698;11.986;2023-05-20T13:05:23;6.83;;;4.17;;
14817;SDS011;7500;57.698;11.986;2023-05-20T13:07:50;5.73;;;4.43;;
14817;SDS011;7500;57.698;11.986;2023-05-20T13:10:17;4.90;;;4.47;;
14817;SDS011;7500;57.698;11.986;2023-05-20T13:12:44;7.10;;;4.07;;
14817;SDS011;7500;57.698;11.986;2023-05-20T13:15:10;4.60;;;4.20;;
14817;SDS011;7500;57.698;11.986;2023-05-20T13:17:37;4.40;;;3.90;;
14817;SDS011;7500;57.698;11.986;2023-05-20T13:20:06;5.37;;;4.27;;
14817;SDS011;7500;57.698;11.986;2023-05-20T13:22:33;4.87;;;4.20;;
14817;SDS011;7500;57.698;11.986;2023-05-20T13:25:00;5.33;;;3.90;;
14817;SDS011;7500;57.698;11.986;2023-05-20T13:27:26;5.20;;;4.13;;
14817;SDS011;7500;57.698;11.986;2023-05-20T13:29:53;5.77;;;4.10;;
14817;SDS011;7500;57.698;11.986;2023-05-20T13:32:20;4.23;;;3.83;;
14817;SDS011;7500;57.698;11.986;2023-05-20T13:34:46;4.70;;;3.80;;
14817;SDS011;7500;57.698;11.986;2023-05-20T13:37:14;5.87;;;3.77;;
14817;SDS011;7500;57.698;11.986;2023-05-20T13:39:41;4.03;;;3.60;;
14817;SDS011;7500;57.698;11.986;2023-05-20T13:42:07;4.60;;;3.57;;
14817;SDS011;7500;57.698;11.986;2023-05-20T13:44:34;5.53;;;3.53;;
14817;SDS011;7500;57.698;11.986;2023-05-20T13:47:00;3.97;;;3.57;;
14817;SDS011;7500;57.698;11.986;2023-05-20T13:49:27;3.97;;;3.50;;
14817;SDS011;7500;57.698;11.986;2023-05-20T13:51:54;5.60;;;3.77;;
14817;SDS011;7500;57.698;11.986;2023-05-20T13:54:21;5.87;;;4.03;;
14817;SDS011;7500;57.698;11.986;2023-05-20T13:56:48;4.70;;;3.80;;
14817;SDS011;7500;57.698;11.986;2023-05-20T13:59:15;4.27;;;3.50;;
14817;SDS011;7500;57.698;11.986;2023-05-20T14:01:42;4.57;;;4.00;;
14817;SDS011;7500;57.698;11.986;2023-05-20T14:04:09;6.60;;;3.90;;
14817;SDS011;7500;57.698;11.986;2023-05-20T14:06:36;4.70;;;3.87;;
14817;SDS011;7500;57.698;11.986;2023-05-20T14:09:04;4.93;;;3.87;;
14817;SDS011;7500;57.698;11.986;2023-05-20T14:11:33;3.83;;;3.40;;
14817;SDS011;7500;57.698;11.986;2023-05-20T14:14:00;3.90;;;3.47;;
14817;SDS011;7500;57.698;11.986;2023-05-20T14:16:26;4.70;;;3.67;;
14817;SDS011;7500;57.698;11.986;2023-05-20T14:18:53;5.17;;;3.40;;
14817;SDS011;7500;57.698;11.986;2023-05-20T14:21:19;4.77;;;3.80;;
14817;SDS011;7500;57.698;11.986;2023-05-20T14:23:46;5.23;;;4.00;;
14817;SDS011;7500;57.698;11.986;2023-05-20T14:26:13;4.00;;;3.60;;
14817;SDS011;7500;57.698;11.986;2023-05-20T14:28:41;5.60;;;3.73;;
14817;SDS011;7500;57.698;11.986;2023-05-20T14:31:08;6.00;;;3.70;;
14817;SDS011;7500;57.698;11.986;2023-05-20T14:33:34;7.57;;;3.80;;
14817;SDS011;7500;57.698;11.986;2023-05-20T14:36:01;4.77;;;3.57;;
14817;SDS011;7500;57.698;11.986;2023-05-20T14:38:28;5.10;;;3.37;;
14817;SDS011;7500;57.698;11.986;2023-05-20T14:40:54;5.40;;;3.70;;
14817;SDS011;7500;57.698;11.986;2023-05-20T14:43:21;3.83;;;3.43;;
14817;SDS011;7500;57.698;11.986;2023-05-20T14:45:49;4.30;;;3.90;;